createdAt,value
2019-06-01T00:00:12.299Z,9.38
2019-06-01T00:01:05.714Z,7.95
2019-06-01T00:01:59.100Z,8.55
2019-06-01T00:02:56.688Z,10.08
2019-06-01T00:03:48.841Z,9.70
2019-06-01T00:04:42.986Z,6.97
2019-06-01T00:05:38.387Z,9.80
2019-06-01T00:06:32.104Z,10.58
2019-06-01T00:07:26.089Z,6.80
2019-06-01T00:08:20.308Z,12.63
2019-06-01T00:09:15.085Z,10.10
2019-06-01T00:10:09.088Z,8.08
2019-06-01T00:11:03.486Z,7.15
2019-06-01T00:11:57.196Z,9.03
2019-06-01T00:12:52.510Z,8.55
2019-06-01T00:13:47.579Z,8.10
2019-06-01T00:14:43.646Z,8.30
2019-06-01T00:15:38.311Z,7.75
2019-06-01T00:16:32.181Z,7.90
2019-06-01T00:17:26.502Z,8.35
2019-06-01T00:18:20.886Z,8.88
2019-06-01T00:19:16.543Z,8.93
2019-06-01T00:20:11.015Z,7.47
2019-06-01T00:21:04.977Z,6.97
2019-06-01T00:21:59.751Z,8.08
2019-06-01T00:22:53.359Z,9.38
2019-06-01T00:23:48.677Z,10.18
2019-06-01T00:24:43.823Z,9.75
2019-06-01T00:25:38.568Z,10.68
2019-06-01T00:26:32.854Z,8.00
2019-06-01T00:27:28.131Z,8.00
2019-06-01T00:28:21.891Z,8.70
2019-06-01T00:29:16.405Z,8.83
2019-06-01T00:30:10.064Z,10.43
2019-06-01T00:31:04.344Z,13.45
2019-06-01T00:31:58.412Z,8.08
2019-06-01T00:32:53.010Z,9.50
2019-06-01T00:33:47.598Z,9.20
2019-06-01T00:34:45.721Z,9.63
2019-06-01T00:35:41.221Z,9.53
2019-06-01T00:36:35.634Z,11.93
2019-06-01T00:37:29.766Z,13.43
2019-06-01T00:38:24.766Z,10.72
2019-06-01T00:39:18.310Z,8.33
2019-06-01T00:40:13.561Z,8.05
2019-06-01T00:41:07.462Z,10.20
2019-06-01T00:42:02.249Z,10.35
2019-06-01T00:42:55.803Z,9.98
2019-06-01T00:43:50.514Z,8.30
2019-06-01T00:44:44.368Z,9.00
2019-06-01T00:45:38.878Z,10.65
2019-06-01T00:46:32.985Z,10.35
2019-06-01T00:47:27.628Z,11.95
2019-06-01T00:48:21.330Z,11.43
2019-06-01T00:49:15.636Z,11.20
2019-06-01T00:50:09.511Z,8.40
2019-06-01T00:51:03.800Z,9.58
2019-06-01T00:51:57.208Z,8.65
2019-06-01T00:52:54.584Z,8.55
2019-06-01T00:53:49.568Z,9.40
2019-06-01T00:54:45.247Z,11.78
2019-06-01T00:55:38.714Z,11.03
2019-06-01T00:56:32.869Z,9.78
2019-06-01T00:57:27.312Z,9.70
2019-06-01T00:58:21.837Z,9.30
2019-06-01T00:59:15.476Z,9.40
2019-06-01T01:00:10.172Z,9.78
2019-06-01T01:01:03.846Z,12.58
2019-06-01T01:01:58.214Z,8.20
2019-06-01T01:02:52.276Z,10.50
2019-06-01T01:03:48.113Z,10.38
2019-06-01T01:04:44.171Z,11.43
2019-06-01T01:05:38.993Z,9.53
2019-06-01T01:06:32.950Z,11.70
2019-06-01T01:07:27.988Z,12.90
2019-06-01T01:08:21.607Z,11.38
2019-06-01T01:09:16.093Z,10.38
2019-06-01T01:10:10.100Z,8.88
2019-06-01T01:11:04.410Z,9.05
2019-06-01T01:11:59.248Z,9.43
2019-06-01T01:13:15.421Z,9.68
2019-06-01T01:14:09.891Z,8.93
2019-06-01T01:15:05.161Z,9.60
2019-06-01T01:15:59.152Z,8.13
2019-06-01T01:16:54.160Z,8.40
2019-06-01T01:17:48.109Z,8.70
2019-06-01T01:18:42.827Z,12.03
2019-06-01T01:19:37.147Z,9.80
2019-06-01T01:20:31.078Z,9.75
2019-06-01T01:21:24.768Z,9.70
2019-06-01T01:22:19.440Z,8.25
2019-06-01T01:23:13.922Z,8.93
2019-06-01T01:24:08.651Z,8.73
2019-06-01T01:25:03.487Z,9.18
2019-06-01T01:25:57.733Z,9.23
2019-06-01T01:26:52.527Z,8.38
2019-06-01T01:27:46.562Z,9.13
2019-06-01T01:28:41.963Z,9.73
2019-06-01T01:29:36.028Z,9.75
2019-06-01T01:30:29.755Z,11.95
2019-06-01T01:31:23.779Z,11.83
2019-06-01T01:32:17.455Z,14.15
2019-06-01T01:33:12.099Z,14.03
2019-06-01T01:34:05.990Z,14.35
2019-06-01T01:35:00.578Z,12.37
2019-06-01T01:35:54.286Z,12.00
2019-06-01T01:36:49.701Z,11.73
2019-06-01T01:37:43.741Z,9.88
2019-06-01T01:38:37.809Z,10.35
2019-06-01T01:39:32.267Z,9.75
2019-06-01T01:40:26.135Z,11.55
2019-06-01T01:41:19.594Z,14.00
2019-06-01T01:42:13.534Z,11.10
2019-06-01T01:43:07.518Z,8.78
2019-06-01T01:44:01.752Z,9.35
2019-06-01T01:44:54.707Z,9.13
2019-06-01T01:45:48.906Z,11.22
2019-06-01T01:46:42.544Z,11.00
2019-06-01T01:47:36.329Z,8.45
2019-06-01T01:48:30.172Z,11.78
2019-06-01T01:49:23.836Z,10.03
2019-06-01T01:50:18.436Z,9.25
2019-06-01T01:51:11.920Z,9.50
2019-06-01T01:52:05.707Z,8.93
2019-06-01T01:52:59.664Z,10.82
2019-06-01T01:53:54.605Z,7.97
2019-06-01T01:54:48.371Z,10.03
2019-06-01T01:55:41.614Z,12.10
2019-06-01T01:56:36.044Z,9.00
2019-06-01T01:57:29.225Z,9.80
2019-06-01T01:58:23.157Z,9.00
2019-06-01T01:59:16.160Z,8.50
2019-06-01T02:00:13.041Z,8.70
2019-06-01T02:01:21.580Z,8.45
2019-06-01T02:02:01.313Z,8.10
2019-06-01T02:02:55.794Z,9.25
2019-06-01T02:03:51.334Z,7.83
2019-06-01T02:04:44.485Z,7.22
2019-06-01T02:05:39.324Z,8.48
2019-06-01T02:06:32.056Z,7.80
2019-06-01T02:07:25.921Z,8.05
2019-06-01T02:08:18.752Z,10.28
2019-06-01T02:09:13.142Z,7.22
2019-06-01T02:10:07.142Z,7.95
2019-06-01T02:11:01.823Z,8.75
2019-06-01T02:11:55.466Z,7.70
2019-06-01T02:12:49.789Z,9.20
2019-06-01T02:13:43.788Z,10.10
2019-06-01T02:14:37.104Z,9.43
2019-06-01T02:15:30.765Z,9.30
2019-06-01T02:16:24.355Z,8.05
2019-06-01T02:17:17.945Z,9.00
2019-06-01T02:18:12.563Z,9.15
2019-06-01T02:19:06.117Z,7.62
2019-06-01T02:20:00.277Z,7.30
2019-06-01T02:20:54.370Z,9.53
2019-06-01T02:21:48.624Z,10.13
2019-06-01T02:22:41.396Z,8.73
2019-06-01T02:23:35.098Z,6.67
2019-06-01T02:24:27.886Z,8.60
2019-06-01T02:25:21.392Z,8.78
2019-06-01T02:26:15.083Z,7.83
2019-06-01T02:27:08.663Z,7.50
2019-06-01T02:28:01.805Z,7.10
2019-06-01T02:28:55.356Z,6.87
2019-06-01T02:29:49.208Z,10.30
2019-06-01T02:30:42.754Z,11.12
2019-06-01T02:31:42.072Z,9.03
2019-06-01T02:32:32.244Z,6.62
2019-06-01T02:33:25.241Z,9.08
2019-06-01T02:34:18.406Z,8.00
2019-06-01T02:35:11.160Z,7.30
2019-06-01T02:36:05.339Z,8.78
2019-06-01T02:37:00.211Z,12.30
2019-06-01T02:37:54.706Z,7.85
2019-06-01T02:38:48.901Z,7.10
2019-06-01T02:39:43.352Z,7.58
2019-06-01T02:40:36.761Z,6.87
2019-06-01T02:41:30.513Z,10.95
2019-06-01T02:42:23.388Z,11.80
2019-06-01T02:43:18.025Z,7.75
2019-06-01T02:44:11.166Z,8.30
2019-06-01T02:45:05.741Z,9.88
2019-06-01T02:46:00.494Z,7.67
2019-06-01T02:46:55.377Z,6.87
2019-06-01T02:47:48.950Z,10.80
2019-06-01T02:48:42.223Z,6.62
2019-06-01T02:49:36.740Z,9.15
2019-06-01T02:50:30.380Z,9.20
2019-06-01T02:51:24.521Z,7.75
2019-06-01T02:52:18.309Z,7.00
2019-06-01T02:53:11.486Z,7.15
2019-06-01T02:54:06.412Z,9.08
2019-06-01T02:54:59.813Z,10.45
2019-06-01T02:55:54.305Z,7.90
2019-06-01T02:56:48.034Z,12.78
2019-06-01T02:57:42.051Z,8.38
2019-06-01T02:58:35.121Z,8.50
2019-06-01T02:59:29.235Z,8.58
2019-06-01T03:01:12.398Z,7.05
2019-06-01T03:02:10.637Z,8.13
2019-06-01T03:03:02.668Z,6.40
2019-06-01T03:03:57.643Z,10.30
2019-06-01T03:04:51.167Z,9.40
2019-06-01T03:05:47.016Z,7.15
2019-06-01T03:06:44.317Z,7.10
2019-06-01T03:07:42.775Z,8.73
2019-06-01T03:08:37.618Z,6.87
2019-06-01T03:09:33.103Z,8.45
2019-06-01T03:10:27.750Z,9.88
2019-06-01T03:11:23.048Z,15.03
2019-06-01T03:12:19.681Z,16.37
2019-06-01T03:13:15.887Z,12.07
2019-06-01T03:14:11.068Z,10.82
2019-06-01T03:15:08.585Z,11.57
2019-06-01T03:16:03.444Z,13.58
2019-06-01T03:17:01.912Z,13.70
2019-06-01T03:17:59.370Z,10.70
2019-06-01T03:18:55.624Z,10.98
2019-06-01T03:19:50.890Z,9.65
2019-06-01T03:20:47.387Z,9.88
2019-06-01T03:21:42.095Z,10.70
2019-06-01T03:22:37.516Z,11.53
2019-06-01T03:23:33.777Z,10.13
2019-06-01T03:24:27.498Z,8.43
2019-06-01T03:25:21.434Z,7.87
2019-06-01T03:26:18.166Z,7.17
2019-06-01T03:27:15.364Z,9.38
2019-06-01T03:28:12.506Z,10.25
2019-06-01T03:29:07.287Z,9.73
2019-06-01T03:30:05.300Z,7.50
2019-06-01T03:30:56.917Z,11.38
2019-06-01T03:31:51.232Z,7.90
2019-06-01T03:32:44.097Z,7.83
2019-06-01T03:33:38.136Z,7.25
2019-06-01T03:34:31.999Z,8.38
2019-06-01T03:35:25.910Z,7.33
2019-06-01T03:36:20.140Z,7.72
2019-06-01T03:37:14.389Z,7.40
2019-06-01T03:38:09.262Z,10.78
2019-06-01T03:39:04.006Z,7.97
2019-06-01T03:39:57.192Z,7.72
2019-06-01T03:40:51.320Z,10.45
2019-06-01T03:41:45.363Z,7.75
2019-06-01T03:42:40.812Z,8.35
2019-06-01T03:43:33.832Z,8.83
2019-06-01T03:44:28.520Z,8.30
2019-06-01T03:45:21.636Z,9.25
2019-06-01T03:46:16.598Z,8.45
2019-06-01T03:47:11.666Z,8.98
2019-06-01T03:48:06.725Z,9.63
2019-06-01T03:48:59.816Z,8.68
2019-06-01T03:49:53.806Z,8.53
2019-06-01T03:50:47.455Z,9.40
2019-06-01T03:51:41.620Z,9.30
2019-06-01T03:52:35.000Z,10.40
2019-06-01T03:53:28.819Z,8.75
2019-06-01T03:54:22.110Z,9.13
2019-06-01T03:55:16.707Z,10.75
2019-06-01T03:56:11.049Z,9.13
2019-06-01T03:57:05.407Z,10.78
2019-06-01T03:57:59.065Z,9.88
2019-06-01T03:58:52.997Z,12.13
2019-06-01T03:59:47.090Z,9.48
2019-06-01T04:00:41.870Z,12.05
2019-06-01T04:01:35.706Z,11.00
2019-06-01T04:02:33.094Z,9.97
2019-06-01T04:03:25.305Z,11.05
2019-06-01T04:04:19.825Z,8.83
2019-06-01T04:05:13.662Z,11.68
2019-06-01T04:06:09.334Z,9.88
2019-06-01T04:07:03.425Z,12.58
2019-06-01T04:07:58.195Z,10.58
2019-06-01T04:08:51.160Z,10.48
2019-06-01T04:09:46.027Z,9.78
2019-06-01T04:10:40.117Z,10.80
2019-06-01T04:11:35.178Z,9.50
2019-06-01T04:12:28.629Z,10.50
2019-06-01T04:13:22.627Z,10.30
2019-06-01T04:14:15.839Z,10.85
2019-06-01T04:15:13.627Z,10.33
2019-06-01T04:16:05.833Z,11.28
2019-06-01T04:17:01.880Z,10.65
2019-06-01T04:17:56.437Z,9.65
2019-06-01T04:18:51.193Z,10.90
2019-06-01T04:19:43.821Z,9.73
2019-06-01T04:20:38.483Z,9.95
2019-06-01T04:21:31.992Z,9.73
2019-06-01T04:22:27.052Z,9.00
2019-06-01T04:23:20.862Z,9.50
2019-06-01T04:24:14.810Z,9.40
2019-06-01T04:25:10.319Z,8.58
2019-06-01T04:26:04.157Z,10.28
2019-06-01T04:26:57.286Z,10.75
2019-06-01T04:27:50.979Z,8.90
2019-06-01T04:28:44.368Z,10.35
2019-06-01T04:29:38.400Z,8.08
2019-06-01T04:30:31.780Z,7.37
2019-06-01T04:31:26.157Z,7.33
2019-06-01T04:32:18.957Z,10.80
2019-06-01T04:33:13.997Z,7.40
2019-06-01T04:34:07.374Z,8.08
2019-06-01T04:35:03.144Z,10.40
2019-06-01T04:35:56.333Z,7.85
2019-06-01T04:36:50.225Z,7.67
2019-06-01T04:37:43.642Z,7.28
2019-06-01T04:38:37.644Z,7.40
2019-06-01T04:39:31.097Z,8.10
2019-06-01T04:40:25.128Z,7.25
2019-06-01T04:41:18.564Z,8.88
2019-06-01T04:42:13.938Z,8.43
2019-06-01T04:43:07.863Z,9.30
2019-06-01T04:44:03.781Z,7.20
2019-06-01T04:44:57.223Z,7.92
2019-06-01T04:45:51.188Z,8.28
2019-06-01T04:46:44.655Z,9.05
2019-06-01T04:47:38.921Z,7.35
2019-06-01T04:48:31.924Z,8.05
2019-06-01T04:49:26.278Z,7.95
2019-06-01T04:50:19.507Z,7.58
2019-06-01T04:51:13.554Z,7.58
2019-06-01T04:52:06.843Z,7.80
2019-06-01T04:53:01.089Z,7.60
2019-06-01T04:53:54.235Z,8.68
2019-06-01T04:54:48.929Z,7.78
2019-06-01T04:55:42.777Z,10.43
2019-06-01T04:56:37.065Z,8.10
2019-06-01T04:57:30.732Z,9.80
2019-06-01T04:58:24.288Z,7.92
2019-06-01T04:59:17.987Z,7.92
2019-06-01T05:00:25.947Z,8.00
2019-06-01T05:01:09.006Z,7.95
2019-06-01T05:02:03.368Z,8.48
2019-06-01T05:03:04.751Z,9.00
2019-06-01T05:03:52.210Z,8.53
2019-06-01T05:04:45.630Z,7.65
2019-06-01T05:05:39.606Z,8.90
2019-06-01T05:06:32.992Z,8.58
2019-06-01T05:07:26.597Z,12.68
2019-06-01T05:08:19.297Z,8.40
2019-06-01T05:09:13.413Z,8.18
2019-06-01T05:10:07.423Z,9.65
2019-06-01T05:11:05.045Z,9.68
2019-06-01T05:11:57.098Z,8.48
2019-06-01T05:12:51.613Z,9.48
2019-06-01T05:13:44.884Z,8.88
2019-06-01T05:14:38.987Z,8.20
2019-06-01T05:15:31.921Z,8.43
2019-06-01T05:16:26.048Z,9.28
2019-06-01T05:17:19.515Z,10.90
2019-06-01T05:18:14.253Z,10.28
2019-06-01T05:19:08.222Z,8.10
2019-06-01T05:20:02.166Z,8.63
2019-06-01T05:20:56.218Z,8.55
2019-06-01T05:21:49.790Z,10.45
2019-06-01T05:22:43.014Z,9.60
2019-06-01T05:23:37.605Z,9.20
2019-06-01T05:24:30.932Z,9.53
2019-06-01T05:25:24.583Z,9.10
2019-06-01T05:26:18.712Z,10.10
2019-06-01T05:27:13.144Z,8.05
2019-06-01T05:28:07.035Z,9.30
2019-06-01T05:29:01.048Z,10.35
2019-06-01T05:29:54.082Z,8.50
2019-06-01T05:30:48.583Z,9.03
2019-06-01T05:31:42.036Z,8.00
2019-06-01T05:32:36.393Z,9.50
2019-06-01T05:33:37.445Z,9.13
2019-06-01T05:34:25.758Z,7.70
2019-06-01T05:35:19.056Z,8.35
2019-06-01T05:36:12.384Z,10.70
2019-06-01T05:37:06.312Z,8.15
2019-06-01T05:38:00.407Z,8.15
2019-06-01T05:38:53.547Z,9.70
2019-06-01T05:39:48.369Z,9.88
2019-06-01T05:40:42.563Z,7.85
2019-06-01T05:41:36.980Z,8.48
2019-06-01T05:42:30.309Z,8.03
2019-06-01T05:43:24.734Z,7.92
2019-06-01T05:44:19.226Z,8.68
2019-06-01T05:45:15.127Z,9.45
2019-06-01T05:46:09.879Z,7.85
2019-06-01T05:47:03.832Z,7.58
2019-06-01T05:47:57.389Z,9.58
2019-06-01T05:48:51.933Z,8.70
2019-06-01T05:49:45.544Z,8.40
2019-06-01T05:50:39.824Z,9.20
2019-06-01T05:51:34.054Z,8.50
2019-06-01T05:52:28.629Z,8.78
2019-06-01T05:53:23.094Z,8.68
2019-06-01T05:54:18.753Z,7.95
2019-06-01T05:55:11.288Z,8.43
2019-06-01T05:56:06.854Z,8.48
2019-06-01T05:57:01.143Z,8.30
2019-06-01T05:57:55.294Z,7.47
2019-06-01T05:58:48.913Z,7.87
2019-06-01T05:59:42.938Z,7.42
2019-06-01T06:00:42.046Z,8.73
2019-06-01T06:01:36.327Z,7.80
2019-06-01T06:02:31.039Z,7.37
2019-06-01T06:03:39.542Z,8.68
2019-06-01T06:04:21.623Z,8.38
2019-06-01T06:05:16.642Z,8.10
2019-06-01T06:06:11.680Z,8.63
2019-06-01T06:07:06.190Z,7.40
2019-06-01T06:08:00.343Z,7.97
2019-06-01T06:08:54.147Z,8.73
2019-06-01T06:09:48.506Z,11.03
2019-06-01T06:10:42.382Z,8.40
2019-06-01T06:11:36.366Z,7.83
2019-06-01T06:12:30.609Z,7.33
2019-06-01T06:13:25.119Z,7.45
2019-06-01T06:14:21.007Z,7.03
2019-06-01T06:15:15.709Z,10.63
2019-06-01T06:16:11.573Z,7.28
2019-06-01T06:17:05.603Z,9.08
2019-06-01T06:17:59.545Z,8.48
2019-06-01T06:18:53.383Z,7.87
2019-06-01T06:19:47.860Z,8.33
2019-06-01T06:20:41.671Z,10.38
2019-06-01T06:21:36.260Z,9.08
2019-06-01T06:22:30.487Z,9.30
2019-06-01T06:23:24.449Z,7.08
2019-06-01T06:24:18.904Z,8.08
2019-06-01T06:25:14.259Z,7.70
2019-06-01T06:26:08.614Z,7.75
2019-06-01T06:27:03.553Z,9.13
2019-06-01T06:27:57.785Z,9.40
2019-06-01T06:28:52.110Z,7.35
2019-06-01T06:29:46.239Z,7.55
2019-06-01T06:30:41.378Z,7.00
2019-06-01T06:31:35.383Z,7.55
2019-06-01T06:32:29.769Z,7.22
2019-06-01T06:33:24.114Z,7.60
2019-06-01T06:34:19.613Z,7.80
2019-06-01T06:35:13.939Z,7.47
2019-06-01T06:36:08.104Z,7.92
2019-06-01T06:37:02.456Z,7.55
2019-06-01T06:37:56.975Z,7.10
2019-06-01T06:38:51.194Z,7.50
2019-06-01T06:39:45.845Z,6.90
2019-06-01T06:40:39.750Z,7.78
2019-06-01T06:41:33.872Z,7.87
2019-06-01T06:42:28.371Z,7.15
2019-06-01T06:43:30.997Z,7.53
2019-06-01T06:44:18.532Z,7.90
2019-06-01T06:45:12.926Z,6.47
2019-06-01T06:46:06.890Z,6.78
2019-06-01T06:47:01.551Z,8.08
2019-06-01T06:47:56.799Z,8.85
2019-06-01T06:48:51.208Z,10.82
2019-06-01T06:49:45.215Z,6.60
2019-06-01T06:50:39.246Z,7.65
2019-06-01T06:51:33.468Z,7.20
2019-06-01T06:52:28.060Z,7.58
2019-06-01T06:53:28.447Z,7.37
2019-06-01T06:54:17.946Z,7.37
2019-06-01T06:55:13.013Z,6.80
2019-06-01T06:56:07.426Z,6.20
2019-06-01T06:57:01.555Z,6.87
2019-06-01T06:57:55.863Z,9.73
2019-06-01T06:58:50.476Z,6.58
2019-06-01T06:59:44.552Z,6.95
2019-06-01T07:00:38.901Z,6.22
2019-06-01T07:01:33.003Z,6.95
2019-06-01T07:02:27.488Z,7.85
2019-06-01T07:03:23.087Z,7.10
2019-06-01T07:04:19.289Z,7.37
2019-06-01T07:05:14.244Z,9.65
2019-06-01T07:06:07.837Z,8.55
2019-06-01T07:07:01.579Z,6.80
2019-06-01T07:07:55.778Z,6.80
2019-06-01T07:08:49.594Z,8.43
2019-06-01T07:09:43.969Z,10.85
2019-06-01T07:10:38.009Z,7.30
2019-06-01T07:11:32.063Z,6.58
2019-06-01T07:12:26.390Z,7.05
2019-06-01T07:13:21.537Z,11.50
2019-06-01T07:14:15.361Z,6.95
2019-06-01T07:15:09.820Z,6.78
2019-06-01T07:16:04.138Z,6.37
2019-06-01T07:16:58.070Z,6.55
2019-06-01T07:17:52.456Z,6.08
2019-06-01T07:18:47.220Z,8.95
2019-06-01T07:19:41.986Z,8.43
2019-06-01T07:20:35.776Z,6.65
2019-06-01T07:21:29.840Z,7.33
2019-06-01T07:22:24.059Z,5.42
2019-06-01T07:23:19.560Z,7.67
2019-06-01T07:24:13.876Z,6.40
2019-06-01T07:25:09.770Z,6.47
2019-06-01T07:26:03.614Z,5.92
2019-06-01T07:26:57.948Z,5.90
2019-06-01T07:27:52.013Z,6.05
2019-06-01T07:28:46.585Z,8.75
2019-06-01T07:29:40.647Z,7.17
2019-06-01T07:30:49.728Z,6.10
2019-06-01T07:31:32.509Z,7.00
2019-06-01T07:32:26.775Z,5.87
2019-06-01T07:33:22.395Z,9.78
2019-06-01T07:34:32.122Z,9.53
2019-06-01T07:35:12.750Z,7.17
2019-06-01T07:36:06.905Z,5.58
2019-06-01T07:37:00.982Z,7.40
2019-06-01T07:37:55.706Z,5.10
2019-06-01T07:38:49.248Z,4.83
2019-06-01T07:39:44.206Z,7.35
2019-06-01T07:40:38.323Z,6.37
2019-06-01T07:41:33.047Z,4.53
2019-06-01T07:42:28.192Z,5.37
2019-06-01T07:43:24.726Z,5.40
2019-06-01T07:44:18.755Z,4.30
2019-06-01T07:45:13.475Z,5.47
2019-06-01T07:46:07.682Z,6.75
2019-06-01T07:47:01.855Z,4.28
2019-06-01T07:47:56.575Z,3.85
2019-06-01T07:48:51.348Z,6.28
2019-06-01T07:49:45.415Z,5.22
2019-06-01T07:50:40.074Z,4.58
2019-06-01T07:51:34.307Z,6.65
2019-06-01T07:52:28.551Z,5.60
2019-06-01T07:53:24.089Z,5.92
2019-06-01T07:54:18.039Z,6.10
2019-06-01T07:55:12.957Z,4.60
2019-06-01T07:56:06.790Z,5.55
2019-06-01T07:57:00.858Z,4.55
2019-06-01T07:57:55.806Z,6.62
2019-06-01T07:58:49.890Z,5.00
2019-06-01T07:59:43.788Z,5.65
2019-06-01T08:00:37.772Z,4.65
2019-06-01T08:01:32.869Z,4.30
2019-06-01T08:02:29.450Z,4.03
2019-06-01T08:03:26.546Z,4.20
2019-06-01T08:04:19.357Z,7.55
2019-06-01T08:05:13.644Z,3.75
2019-06-01T08:06:07.517Z,4.90
2019-06-01T08:07:01.745Z,5.08
2019-06-01T08:07:55.591Z,5.03
2019-06-01T08:08:49.334Z,4.12
2019-06-01T08:09:43.371Z,4.78
2019-06-01T08:10:37.498Z,5.08
2019-06-01T08:11:34.623Z,7.08
2019-06-01T08:12:27.531Z,5.45
2019-06-01T08:13:21.941Z,5.45
2019-06-01T08:14:16.108Z,5.87
2019-06-01T08:15:10.519Z,4.37
2019-06-01T08:16:04.471Z,4.80
2019-06-01T08:16:58.637Z,4.25
2019-06-01T08:17:53.136Z,3.90
2019-06-01T08:18:47.631Z,4.58
2019-06-01T08:19:41.980Z,4.37
2019-06-01T08:20:36.287Z,4.20
2019-06-01T08:21:30.351Z,3.98
2019-06-01T08:22:25.899Z,4.10
2019-06-01T08:23:20.420Z,4.95
2019-06-01T08:24:14.610Z,6.03
2019-06-01T08:25:08.864Z,4.90
2019-06-01T08:26:02.893Z,3.50
2019-06-01T08:26:57.003Z,4.20
2019-06-01T08:27:51.263Z,4.08
2019-06-01T08:28:45.556Z,3.95
2019-06-01T08:29:39.981Z,3.58
2019-06-01T08:30:34.318Z,5.00
2019-06-01T08:31:28.896Z,4.85
2019-06-01T08:32:24.561Z,6.75
2019-06-01T08:33:18.961Z,3.75
2019-06-01T08:34:13.653Z,4.58
2019-06-01T08:35:09.740Z,4.37
2019-06-01T08:36:03.886Z,8.03
2019-06-01T08:36:58.065Z,4.60
2019-06-01T08:37:52.471Z,4.50
2019-06-01T08:38:46.852Z,4.83
2019-06-01T08:39:40.781Z,4.30
2019-06-01T08:40:35.106Z,4.42
2019-06-01T08:41:29.903Z,2.60
2019-06-01T08:42:25.261Z,3.80
2019-06-01T08:43:19.720Z,2.83
2019-06-01T08:44:14.078Z,3.27
2019-06-01T08:45:08.508Z,5.22
2019-06-01T08:46:03.184Z,3.60
2019-06-01T08:46:57.311Z,3.10
2019-06-01T08:47:51.751Z,4.10
2019-06-01T08:48:45.861Z,2.30
2019-06-01T08:49:40.719Z,3.33
2019-06-01T08:50:34.826Z,9.75
2019-06-01T08:51:29.933Z,4.35
2019-06-01T08:52:24.447Z,3.12
2019-06-01T08:53:19.995Z,5.33
2019-06-01T08:54:13.918Z,3.47
2019-06-01T08:55:08.635Z,3.33
2019-06-01T08:56:02.731Z,2.60
2019-06-01T08:56:56.554Z,3.08
2019-06-01T08:57:51.024Z,2.60
2019-06-01T08:58:45.213Z,3.42
2019-06-01T08:59:39.713Z,3.33
2019-06-01T09:00:34.746Z,6.78
2019-06-01T09:01:30.526Z,3.67
2019-06-01T09:02:26.497Z,2.55
2019-06-01T09:03:21.501Z,2.75
2019-06-01T09:04:15.323Z,3.87
2019-06-01T09:05:23.261Z,4.37
2019-06-01T09:06:05.648Z,2.37
2019-06-01T09:07:00.091Z,3.12
2019-06-01T09:07:55.160Z,3.15
2019-06-01T09:08:49.339Z,3.12
2019-06-01T09:09:43.727Z,4.05
2019-06-01T09:10:38.022Z,2.22
2019-06-01T09:11:31.472Z,3.67
2019-06-01T09:12:25.421Z,3.20
2019-06-01T09:13:19.192Z,4.25
2019-06-01T09:14:13.429Z,2.42
2019-06-01T09:15:08.006Z,2.12
2019-06-01T09:16:02.728Z,2.83
2019-06-01T09:16:56.941Z,2.52
2019-06-01T09:17:51.020Z,2.77
2019-06-01T09:18:45.579Z,2.70
2019-06-01T09:19:39.566Z,2.33
2019-06-01T09:20:36.957Z,2.65
2019-06-01T09:21:29.510Z,2.10
2019-06-01T09:22:23.681Z,2.50
2019-06-01T09:23:18.763Z,2.35
2019-06-01T09:24:12.422Z,4.28
2019-06-01T09:25:06.863Z,5.72
2019-06-01T09:26:01.102Z,2.40
2019-06-01T09:26:55.498Z,3.15
2019-06-01T09:27:50.035Z,2.02
2019-06-01T09:28:44.792Z,2.85
2019-06-01T09:29:39.935Z,3.60
2019-06-01T09:30:34.453Z,4.37
2019-06-01T09:31:30.238Z,2.15
2019-06-01T09:32:25.998Z,2.95
2019-06-01T09:33:19.995Z,2.15
2019-06-01T09:34:14.195Z,3.02
2019-06-01T09:35:09.454Z,2.72
2019-06-01T09:36:03.404Z,2.37
2019-06-01T09:36:57.740Z,3.05
2019-06-01T09:37:52.425Z,5.67
2019-06-01T09:38:46.369Z,2.85
2019-06-01T09:39:40.366Z,2.58
2019-06-01T09:40:35.096Z,2.42
2019-06-01T09:41:30.401Z,2.70
2019-06-01T09:42:24.549Z,2.67
2019-06-01T09:43:19.016Z,2.22
2019-06-01T09:44:12.903Z,2.67
2019-06-01T09:45:07.265Z,3.90
2019-06-01T09:46:01.310Z,2.75
2019-06-01T09:46:55.035Z,3.77
2019-06-01T09:47:49.244Z,3.17
2019-06-01T09:48:43.776Z,2.37
2019-06-01T09:49:38.068Z,1.80
2019-06-01T09:50:33.438Z,2.95
2019-06-01T09:51:27.634Z,3.55
2019-06-01T09:52:21.398Z,3.52
2019-06-01T09:53:15.281Z,2.92
2019-06-01T09:54:09.873Z,3.35
2019-06-01T09:55:04.410Z,3.05
2019-06-01T09:55:58.708Z,3.27
2019-06-01T09:56:52.546Z,2.00
2019-06-01T09:57:47.024Z,4.92
2019-06-01T09:58:41.674Z,2.35
2019-06-01T09:59:36.098Z,2.10
2019-06-01T10:00:30.368Z,2.17
2019-06-01T10:01:24.661Z,2.22
2019-06-01T10:02:18.653Z,4.12
2019-06-01T10:03:13.458Z,3.12
2019-06-01T10:04:09.320Z,1.80
2019-06-01T10:05:03.191Z,2.25
2019-06-01T10:06:01.714Z,2.65
2019-06-01T10:06:53.268Z,3.35
2019-06-01T10:08:18.133Z,2.10
2019-06-01T10:09:13.197Z,2.37
2019-06-01T10:10:07.350Z,3.55
2019-06-01T10:11:01.415Z,1.82
2019-06-01T10:11:55.557Z,5.30
2019-06-01T10:12:51.080Z,1.87
2019-06-01T10:13:45.023Z,3.15
2019-06-01T10:14:39.554Z,1.72
2019-06-01T10:15:34.347Z,1.95
2019-06-01T10:16:30.406Z,2.10
2019-06-01T10:17:25.390Z,2.00
2019-06-01T10:18:19.715Z,1.62
2019-06-01T10:19:13.085Z,2.83
2019-06-01T10:20:07.183Z,1.60
2019-06-01T10:21:01.467Z,2.12
2019-06-01T10:21:55.576Z,1.70
2019-06-01T10:22:50.242Z,2.72
2019-06-01T10:23:48.967Z,1.60
2019-06-01T10:24:41.341Z,2.02
2019-06-01T10:25:36.466Z,3.02
2019-06-01T10:26:31.325Z,1.70
2019-06-01T10:27:26.034Z,2.52
2019-06-01T10:28:19.900Z,2.65
2019-06-01T10:29:13.733Z,2.35
2019-06-01T10:30:09.102Z,4.33
2019-06-01T10:31:03.467Z,1.70
2019-06-01T10:31:57.725Z,2.90
2019-06-01T10:32:52.087Z,1.72
2019-06-01T10:33:46.037Z,1.90
2019-06-01T10:34:40.193Z,2.62
2019-06-01T10:35:34.933Z,2.87
2019-06-01T10:36:29.674Z,3.10
2019-06-01T10:37:23.857Z,1.60
2019-06-01T10:38:18.776Z,3.15
2019-06-01T10:39:12.944Z,2.08
2019-06-01T10:40:07.774Z,1.90
2019-06-01T10:41:02.409Z,2.02
2019-06-01T10:41:57.162Z,1.90
2019-06-01T10:42:54.669Z,2.35
2019-06-01T10:43:49.056Z,1.52
2019-06-01T10:44:45.674Z,4.35
2019-06-01T10:45:39.853Z,2.83
2019-06-01T10:46:33.990Z,2.77
2019-06-01T10:47:28.077Z,3.75
2019-06-01T10:48:22.397Z,3.25
2019-06-01T10:49:16.514Z,2.30
2019-06-01T10:50:10.259Z,1.70
2019-06-01T10:51:05.372Z,2.50
2019-06-01T10:51:59.111Z,3.35
2019-06-01T10:52:53.034Z,6.22
2019-06-01T10:53:46.892Z,4.37
2019-06-01T10:54:42.437Z,3.25
2019-06-01T10:55:36.466Z,2.17
2019-06-01T10:56:32.319Z,3.05
2019-06-01T10:57:27.248Z,3.33
2019-06-01T10:58:21.245Z,1.60
2019-06-01T10:59:14.547Z,2.42
2019-06-01T11:00:09.282Z,1.98
2019-06-01T11:01:03.383Z,1.95
2019-06-01T11:01:57.853Z,2.27
2019-06-01T11:02:52.320Z,1.60
2019-06-01T11:03:46.667Z,1.98
2019-06-01T11:04:41.143Z,1.90
2019-06-01T11:05:36.651Z,2.75
2019-06-01T11:06:38.856Z,2.17
2019-06-01T11:07:26.649Z,2.95
2019-06-01T11:08:20.699Z,3.98
2019-06-01T11:09:14.900Z,1.82
2019-06-01T11:10:10.430Z,2.22
2019-06-01T11:11:05.207Z,1.98
2019-06-01T11:11:59.530Z,3.15
2019-06-01T11:12:54.403Z,1.52
2019-06-01T11:13:49.389Z,1.87
2019-06-01T11:14:43.459Z,2.00
2019-06-01T11:15:37.527Z,2.95
2019-06-01T11:16:31.364Z,2.70
2019-06-01T11:17:25.630Z,5.78
2019-06-01T11:18:20.281Z,2.25
2019-06-01T11:19:14.592Z,2.58
2019-06-01T11:20:08.609Z,2.85
2019-06-01T11:21:03.809Z,5.47
2019-06-01T11:21:57.554Z,2.15
2019-06-01T11:22:51.911Z,2.83
2019-06-01T11:23:46.625Z,4.45
2019-06-01T11:24:41.693Z,3.90
2019-06-01T11:25:35.706Z,2.70
2019-06-01T11:26:29.972Z,1.80
2019-06-01T11:27:24.219Z,3.83
2019-06-01T11:28:18.569Z,2.05
2019-06-01T11:29:13.081Z,2.22
2019-06-01T11:30:09.746Z,2.83
2019-06-01T11:31:03.289Z,4.10
2019-06-01T11:31:57.940Z,2.35
2019-06-01T11:32:52.500Z,2.05
2019-06-01T11:33:47.296Z,2.47
2019-06-01T11:34:42.472Z,3.70
2019-06-01T11:35:37.213Z,3.62
2019-06-01T11:36:31.636Z,2.10
2019-06-01T11:37:25.892Z,1.72
2019-06-01T11:38:20.146Z,1.87
2019-06-01T11:39:14.825Z,2.85
2019-06-01T11:40:09.421Z,1.42
2019-06-01T11:41:03.673Z,2.67
2019-06-01T11:41:58.123Z,1.90
2019-06-01T11:42:51.841Z,1.57
2019-06-01T11:43:46.254Z,1.47
2019-06-01T11:44:40.770Z,2.67
2019-06-01T11:45:34.958Z,1.60
2019-06-01T11:46:29.076Z,1.72
2019-06-01T11:47:23.509Z,1.32
2019-06-01T11:48:17.382Z,4.00
2019-06-01T11:49:11.346Z,1.70
2019-06-01T11:50:06.101Z,1.82
2019-06-01T11:51:00.542Z,1.65
2019-06-01T11:51:55.460Z,2.30
2019-06-01T11:52:51.087Z,1.35
2019-06-01T11:53:45.660Z,1.10
2019-06-01T11:54:41.206Z,1.75
2019-06-01T11:55:35.478Z,1.45
2019-06-01T11:56:29.441Z,1.72
2019-06-01T11:57:23.324Z,2.98
2019-06-01T11:58:17.307Z,2.02
2019-06-01T11:59:11.217Z,2.52
2019-06-01T12:00:07.735Z,1.30
2019-06-01T12:01:01.565Z,1.75
2019-06-01T12:01:56.626Z,2.67